Time;durP1;ratioP1;P1;durP2;ratioP2;P2;SDS_P1;SDS_P2;PMS_P1;PMS_P2;Temp;Humidity;BMP_temperature;BMP_pressure;BME280_temperature;BME280_humidity;BME280_pressure;Samples;Min_cycle;Max_cycle;Signal;HPM_P1;HPM_P2
2024/05/06 00:01:08;;;;;;;3.03;2.87;;;;;;;15.57;83.95;99610.00;5356237;26;20292;-74
2024/05/06 00:03:33;;;;;;;4.17;3.87;;;;;;;15.26;85.76;99605.91;5358729;26;20716;-73
2024/05/06 00:05:58;;;;;;;3.00;2.90;;;;;;;15.11;86.53;99600.97;5337816;26;20236;-74
2024/05/06 00:08:23;;;;;;;3.93;3.60;;;;;;;14.54;90.25;99588.31;5361679;26;20231;-74
2024/05/06 00:10:49;;;;;;;4.27;3.93;;;;;;;14.43;91.68;99599.28;5359009;26;20294;-74
2024/05/06 00:13:14;;;;;;;3.70;3.40;;;;;;;14.58;90.94;99595.91;5364668;26;20348;-74
2024/05/06 00:15:39;;;;;;;3.50;3.30;;;;;;;14.50;90.90;99592.72;5369119;26;20698;-74
2024/05/06 00:18:04;;;;;;;2.87;2.77;;;;;;;14.78;90.54;99595.44;5367036;26;20290;-73
2024/05/06 00:20:31;;;;;;;3.70;2.83;;;;;;;15.33;87.36;99591.78;5349364;26;20286;-74
2024/05/06 00:22:56;;;;;;;5.07;3.00;;;;;;;15.05;87.63;99592.78;5347566;26;20253;-72
2024/05/06 00:25:21;;;;;;;3.90;3.60;;;;;;;14.88;87.43;99591.94;5359020;26;20462;-74
2024/05/06 00:27:46;;;;;;;5.07;3.27;;;;;;;14.92;87.80;99595.91;5359089;26;20706;-74
2024/05/06 00:30:14;;;;;;;3.40;3.20;;;;;;;14.93;88.97;99581.75;5367046;26;20233;-75
2024/05/06 00:32:40;;;;;;;4.47;2.90;;;;;;;15.10;88.64;99595.66;5369376;26;20331;-74
2024/05/06 00:35:05;;;;;;;3.20;2.97;;;;;;;14.80;89.64;99582.13;5363666;26;20454;-74
2024/05/06 00:37:32;;;;;;;3.70;3.40;;;;;;;14.73;91.04;99587.00;5358786;26;20231;-73
2024/05/06 00:39:57;;;;;;;6.10;3.70;;;;;;;14.87;89.97;99585.56;5361543;26;20743;-73
2024/05/06 00:42:22;;;;;;;3.97;3.77;;;;;;;14.94;90.59;99583.44;5375201;26;20461;-74
2024/05/06 00:44:47;;;;;;;3.83;3.63;;;;;;;15.75;86.06;99584.56;5360101;26;20350;-74
2024/05/06 00:47:13;;;;;;;3.80;3.57;;;;;;;15.28;88.02;99567.50;5368823;26;20279;-73
2024/05/06 00:49:38;;;;;;;3.63;3.33;;;;;;;14.95;90.58;99576.78;5316690;26;20749;-74
2024/05/06 00:52:04;;;;;;;3.67;3.23;;;;;;;14.98;90.54;99572.63;5366997;26;20764;-74
2024/05/06 00:54:29;;;;;;;5.40;3.80;;;;;;;15.04;90.38;99566.91;5350460;26;20285;-73
2024/05/06 00:56:55;;;;;;;5.07;3.70;;;;;;;15.73;85.08;99566.47;5365879;26;20264;-74
2024/05/06 00:59:22;;;;;;;3.80;3.47;;;;;;;15.72;85.48;99568.41;5352680;26;20269;-75
2024/05/06 01:01:49;;;;;;;4.50;4.10;;;;;;;15.54;86.20;99573.44;5361723;26;20228;-74
2024/05/06 01:04:14;;;;;;;3.63;3.33;;;;;;;15.15;88.75;99567.88;5368434;26;20816;-75
2024/05/06 01:06:40;;;;;;;4.43;3.20;;;;;;;14.88;89.82;99559.44;5345972;26;20510;-74
2024/05/06 01:09:05;;;;;;;3.43;3.23;;;;;;;14.78;90.37;99564.84;5358276;26;20278;-74
2024/05/06 01:11:30;;;;;;;3.50;3.33;;;;;;;14.96;89.16;99555.38;5358459;26;20240;-74
2024/05/06 01:13:56;;;;;;;4.23;3.30;;;;;;;15.12;89.07;99558.09;5379437;26;20236;-73
2024/05/06 01:16:22;;;;;;;3.73;3.53;;;;;;;15.54;86.94;99552.00;5321893;26;20271;-74
2024/05/06 01:18:47;;;;;;;4.97;3.00;;;;;;;15.48;87.67;99566.94;5367241;26;20717;-74
2024/05/06 01:21:22;;;;;;;3.43;3.23;;;;;;;15.32;87.94;99552.00;5364075;26;20349;-73
2024/05/06 01:23:49;;;;;;;5.33;3.60;;;;;;;15.57;86.57;99559.03;5371525;26;20295;-75
2024/05/06 01:26:15;;;;;;;2.87;2.67;;;;;;;15.63;84.92;99544.91;5362859;26;20465;-74
2024/05/06 01:28:40;;;;;;;3.23;3.03;;;;;;;15.33;87.62;99547.25;5361644;26;20515;-74
2024/05/06 01:31:06;;;;;;;3.17;3.03;;;;;;;15.13;87.78;99547.81;5352207;26;20458;-73
2024/05/06 01:33:31;;;;;;;3.07;2.87;;;;;;;15.09;88.80;99535.53;5353145;26;20236;-74
2024/05/06 01:35:56;;;;;;;3.20;3.00;;;;;;;15.25;87.71;99547.72;5318223;26;20608;-74
2024/05/06 01:38:21;;;;;;;2.80;2.70;;;;;;;15.30;87.35;99525.50;5348831;26;20229;-74
2024/05/06 01:40:47;;;;;;;3.03;2.93;;;;;;;15.46;86.14;99538.53;5370014;26;20232;-75
2024/05/06 01:43:12;;;;;;;3.17;2.97;;;;;;;15.59;85.61;99537.31;5372411;26;20319;-73
2024/05/06 01:45:37;;;;;;;3.00;2.80;;;;;;;14.95;88.11;99515.59;5350058;26;20291;-74
2024/05/06 01:48:03;;;;;;;3.47;3.27;;;;;;;15.22;88.14;99524.03;5367260;26;20283;-74
2024/05/06 01:50:29;;;;;;;3.10;2.90;;;;;;;15.67;84.34;99520.16;5374954;26;20244;-74
2024/05/06 01:52:54;;;;;;;3.20;3.00;;;;;;;15.07;87.49;99521.88;5352831;26;20477;-74
2024/05/06 01:55:19;;;;;;;3.20;3.00;;;;;;;14.69;89.80;99516.31;5354745;26;20592;-74
2024/05/06 01:57:47;;;;;;;3.43;3.33;;;;;;;14.62;90.66;99496.19;5368982;26;20279;-74
2024/05/06 02:00:13;;;;;;;3.77;3.47;;;;;;;15.11;88.37;99508.31;5354146;26;20330;-73
2024/05/06 02:02:40;;;;;;;3.97;3.23;;;;;;;15.21;86.42;99515.94;5353009;26;20467;-74
2024/05/06 02:05:06;;;;;;;3.20;3.00;;;;;;;14.68;88.69;99500.72;5349626;26;20291;-74
2024/05/06 02:07:31;;;;;;;3.77;3.57;;;;;;;14.32;91.78;99502.91;5371101;26;20454;-73
2024/05/06 02:09:56;;;;;;;3.50;3.30;;;;;;;14.25;92.40;99495.81;5332642;26;20232;-75
2024/05/06 02:12:21;;;;;;;4.13;2.80;;;;;;;14.32;92.59;99499.28;5355959;26;20228;-73
2024/05/06 02:14:47;;;;;;;3.60;3.30;;;;;;;14.28;93.52;99495.34;5365857;26;20699;-74
2024/05/06 02:17:12;;;;;;;4.17;3.77;;;;;;;14.49;93.07;99497.38;5359937;26;20237;-74
2024/05/06 02:19:37;;;;;;;4.83;3.30;;;;;;;14.73;92.20;99498.03;5368052;26;20345;-74
2024/05/06 02:22:03;;;;;;;2.93;2.73;;;;;;;14.84;91.16;99485.94;5352102;26;20341;-74
2024/05/06 02:24:28;;;;;;;3.67;3.47;;;;;;;14.74;91.23;99500.56;5370487;26;20582;-73
2024/05/06 02:26:53;;;;;;;3.57;3.37;;;;;;;14.70;90.78;99498.53;5371032;26;20229;-74
2024/05/06 02:29:18;;;;;;;3.40;3.10;;;;;;;15.06;89.70;99509.06;5370239;26;20232;-74
2024/05/06 02:31:44;;;;;;;3.03;2.83;;;;;;;15.10;89.03;99510.25;5362766;26;20345;-74
2024/05/06 02:34:09;;;;;;;3.53;3.23;;;;;;;15.40;87.28;99515.38;5360898;26;20607;-74
2024/05/06 02:36:34;;;;;;;3.63;3.30;;;;;;;15.26;87.67;99516.03;5366221;26;20233;-74
2024/05/06 02:39:00;;;;;;;3.20;3.00;;;;;;;15.85;84.82;99517.03;5362051;26;20748;-73
2024/05/06 02:41:25;;;;;;;3.00;2.90;;;;;;;15.79;84.75;99507.78;5367176;26;20243;-73
2024/05/06 02:43:50;;;;;;;3.90;2.83;;;;;;;15.63;86.03;99514.28;5374091;26;20371;-74
2024/05/06 02:46:16;;;;;;;2.70;2.60;;;;;;;15.31;87.48;99499.38;5353402;26;20233;-73
2024/05/06 02:48:41;;;;;;;3.80;3.60;;;;;;;14.68;90.54;99489.59;5370499;26;20233;-74
2024/05/06 02:51:08;;;;;;;3.40;3.17;;;;;;;14.83;90.51;99491.75;5370307;26;20502;-73
2024/05/06 02:53:34;;;;;;;3.33;3.13;;;;;;;15.65;85.94;99487.00;5317507;26;20573;-74
2024/05/06 02:55:59;;;;;;;3.27;3.07;;;;;;;15.44;85.63;99501.75;5358149;26;20574;-73
2024/05/06 02:58:24;;;;;;;3.10;3.00;;;;;;;15.55;84.97;99497.16;5363857;26;20232;-74
2024/05/06 03:00:50;;;;;;;3.37;3.17;;;;;;;15.49;85.76;99504.59;5329440;26;20260;-74
2024/05/06 03:03:15;;;;;;;3.00;2.80;;;;;;;15.58;85.10;99491.97;5364437;26;20245;-74
2024/05/06 03:05:40;;;;;;;3.10;2.90;;;;;;;15.33;86.08;99480.47;5370378;26;20233;-74
2024/05/06 03:08:06;;;;;;;4.00;3.60;;;;;;;15.47;85.72;99488.16;5347550;26;20232;-73
2024/05/06 03:10:31;;;;;;;4.37;2.70;;;;;;;15.34;86.43;99493.28;5358853;26;20555;-74
2024/05/06 03:12:56;;;;;;;3.83;3.43;;;;;;;15.26;88.13;99490.97;5361404;26;20315;-74
2024/05/06 03:15:22;;;;;;;3.30;3.10;;;;;;;15.17;87.87;99486.94;5368804;26;20233;-74
2024/05/06 03:17:47;;;;;;;3.50;3.20;;;;;;;15.40;86.94;99479.19;5369913;26;20232;-74
2024/05/06 03:20:12;;;;;;;2.97;2.80;;;;;;;15.12;88.93;99484.97;5363795;26;20282;-74
2024/05/06 03:22:37;;;;;;;2.57;2.47;;;;;;;15.11;89.80;99470.19;5359594;26;20239;-74
2024/05/06 03:25:03;;;;;;;2.30;2.20;;;;;;;15.20;89.18;99483.66;5363954;26;20350;-74
2024/05/06 03:27:28;;;;;;;3.80;2.80;;;;;;;15.36;89.13;99491.09;5370148;26;20749;-73
2024/05/06 03:29:53;;;;;;;2.83;2.73;;;;;;;15.98;83.36;99493.47;5354310;26;20233;-73
2024/05/06 03:32:19;;;;;;;2.97;2.67;;;;;;;15.61;85.01;99483.06;5358203;26;20550;-74
2024/05/06 03:34:44;;;;;;;3.27;3.03;;;;;;;15.25;87.89;99492.06;5359878;26;20763;-75
2024/05/06 03:37:09;;;;;;;4.10;3.60;;;;;;;15.04;90.01;99493.72;5368948;26;20230;-74
2024/05/06 03:39:35;;;;;;;2.60;2.50;;;;;;;14.95;90.20;99493.34;5337525;26;20275;-74
2024/05/06 03:42:00;;;;;;;3.83;3.00;;;;;;;15.06;89.52;99477.63;5354781;26;20320;-73
2024/05/06 03:44:25;;;;;;;2.80;2.60;;;;;;;15.17;89.14;99482.22;5347252;26;20279;-73
2024/05/06 03:46:50;;;;;;;3.20;2.80;;;;;;;15.23;87.32;99489.53;5351780;26;20229;-75
2024/05/06 03:49:16;;;;;;;2.93;2.73;;;;;;;15.15;88.23;99489.97;5355455;26;20630;-74
2024/05/06 03:51:41;;;;;;;3.27;3.07;;;;;;;14.96;89.04;99486.69;5382139;26;20236;-74
2024/05/06 03:54:07;;;;;;;3.23;3.03;;;;;;;14.67;90.61;99491.53;5359190;26;20277;-75
2024/05/06 03:56:32;;;;;;;3.47;3.27;;;;;;;14.61;91.02;99486.16;5359586;26;20629;-74
2024/05/06 03:58:57;;;;;;;2.80;2.60;;;;;;;14.91;90.62;99483.84;5369101;26;20291;-74
2024/05/06 04:01:24;;;;;;;2.60;2.40;;;;;;;15.18;88.49;99494.19;5369818;26;20720;-75
2024/05/06 04:03:49;;;;;;;2.87;2.67;;;;;;;15.25;88.47;99497.63;5350915;26;20297;-74
2024/05/06 04:06:16;;;;;;;2.93;2.63;;;;;;;15.13;88.04;99483.81;5369437;26;20582;-74
2024/05/06 04:08:42;;;;;;;2.70;2.60;;;;;;;14.88;89.21;99480.72;5347052;26;20240;-74
2024/05/06 04:11:07;;;;;;;2.87;2.67;;;;;;;15.21;88.40;99493.69;5356465;26;20526;-74
2024/05/06 04:13:33;;;;;;;3.93;2.97;;;;;;;15.73;86.18;99478.19;5358860;26;20276;-74
2024/05/06 04:15:59;;;;;;;3.10;2.90;;;;;;;15.91;84.52;99493.69;5357723;26;20288;-74
2024/05/06 04:18:25;;;;;;;3.60;3.30;;;;;;;15.61;84.59;99476.66;5358836;26;21060;-74
2024/05/06 04:20:50;;;;;;;3.07;2.90;;;;;;;15.18;87.46;99480.28;5379923;26;20353;-73
2024/05/06 04:28:45;;;;;;;3.30;3.00;;;;;;;15.33;88.01;99488.81;5346972;26;21044;-73
2024/05/06 04:31:15;;;;;;;2.90;2.70;;;;;;;15.30;88.33;99478.19;5352295;26;20503;-74
2024/05/06 04:33:41;;;;;;;3.00;2.90;;;;;;;15.21;88.86;99486.19;5361329;26;20456;-74
2024/05/06 04:36:07;;;;;;;3.00;2.63;;;;;;;15.49;88.52;99494.31;5356309;26;20586;-74
2024/05/06 04:38:32;;;;;;;3.77;3.37;;;;;;;15.73;87.42;99492.13;5357812;26;20479;-73
2024/05/06 04:40:57;;;;;;;5.83;2.60;;;;;;;15.90;86.30;99493.94;5368672;26;20236;-73
2024/05/06 04:43:22;;;;;;;2.77;2.57;;;;;;;16.05;85.19;99491.31;5368529;26;20228;-74
2024/05/06 04:45:48;;;;;;;3.00;2.80;;;;;;;16.26;83.54;99495.13;5361494;26;20558;-74
2024/05/06 04:48:13;;;;;;;2.83;2.63;;;;;;;16.26;82.73;99493.19;5358747;26;20736;-74
2024/05/06 04:50:38;;;;;;;3.03;2.83;;;;;;;16.02;84.41;99494.63;5332081;26;20311;-74
2024/05/06 04:53:03;;;;;;;2.70;2.60;;;;;;;15.62;86.74;99495.03;5353472;26;20228;-73
2024/05/06 04:55:29;;;;;;;3.33;2.57;;;;;;;15.09;88.48;99489.09;5358308;26;20252;-73
2024/05/06 04:57:54;;;;;;;2.70;2.50;;;;;;;15.56;87.73;99505.28;5367486;26;20278;-74
2024/05/06 05:00:19;;;;;;;2.50;2.30;;;;;;;15.56;86.63;99485.81;5358973;26;20323;-74
2024/05/06 05:02:45;;;;;;;2.57;2.40;;;;;;;15.94;85.74;99493.16;5357460;26;20705;-74
2024/05/06 05:05:10;;;;;;;2.67;2.57;;;;;;;15.70;86.60;99497.38;5358420;26;20280;-74
2024/05/06 05:07:38;;;;;;;3.10;2.90;;;;;;;15.42;88.35;99499.25;5366860;26;20276;-73
2024/05/06 05:10:04;;;;;;;2.23;2.13;;;;;;;15.51;88.29;99485.72;5351123;26;20279;-73
2024/05/06 05:12:29;;;;;;;2.70;2.50;;;;;;;15.71;87.51;99499.91;5366879;26;20987;-74
2024/05/06 05:14:54;;;;;;;2.30;2.20;;;;;;;15.83;86.82;99500.56;5373235;26;20331;-73
2024/05/06 05:17:19;;;;;;;6.13;2.63;;;;;;;15.82;87.03;99496.09;5365853;26;20283;-75
2024/05/06 05:19:45;;;;;;;2.63;2.43;;;;;;;16.26;83.93;99503.47;5358468;26;20284;-74
2024/05/06 05:22:10;;;;;;;2.50;2.30;;;;;;;16.06;84.53;99502.19;5357913;26;20621;-74
2024/05/06 05:24:35;;;;;;;2.57;2.37;;;;;;;15.82;86.79;99495.28;5367854;26;20769;-74
2024/05/06 05:27:02;;;;;;;2.77;2.50;;;;;;;15.68;87.07;99503.19;5368123;26;20344;-74
2024/05/06 05:29:29;;;;;;;2.30;2.10;;;;;;;15.67;87.17;99498.72;5346822;26;20282;-74
2024/05/06 05:31:54;;;;;;;2.93;2.73;;;;;;;15.70;87.18;99487.06;5373580;26;20646;-74
2024/05/06 05:34:19;;;;;;;2.23;2.13;;;;;;;15.73;87.63;99496.84;5331891;26;20476;-73
2024/05/06 05:36:44;;;;;;;2.67;2.47;;;;;;;15.68;87.57;99486.50;5367604;26;20284;-74
2024/05/06 05:39:10;;;;;;;2.83;2.53;;;;;;;15.63;87.78;99497.56;5345434;26;20232;-73
2024/05/06 05:41:35;;;;;;;3.10;2.63;;;;;;;15.73;87.75;99500.47;5367677;26;20244;-73
2024/05/06 05:44:00;;;;;;;2.50;2.40;;;;;;;15.85;87.47;99480.81;5366695;26;20568;-74
2024/05/06 05:46:26;;;;;;;2.80;2.60;;;;;;;15.64;88.17;99490.91;5346610;26;20330;-74
2024/05/06 05:48:51;;;;;;;3.57;2.50;;;;;;;15.72;88.50;99497.94;5368053;26;20236;-74
2024/05/06 05:51:16;;;;;;;2.87;2.57;;;;;;;15.91;87.32;99490.88;5361549;26;20236;-74
2024/05/06 05:53:41;;;;;;;2.87;2.60;;;;;;;15.96;87.38;99465.88;5357641;26;20709;-74
2024/05/06 05:56:07;;;;;;;3.03;2.80;;;;;;;16.23;87.63;99488.13;5361113;26;20241;-74
2024/05/06 05:58:32;;;;;;;2.67;2.47;;;;;;;16.47;86.30;99499.78;5368255;26;20233;-74
2024/05/06 06:00:57;;;;;;;2.40;2.20;;;;;;;16.54;86.59;99500.38;5324879;26;20232;-74
2024/05/06 06:03:22;;;;;;;3.20;2.37;;;;;;;16.56;87.67;99503.75;5349841;26;20280;-75
2024/05/06 06:05:48;;;;;;;2.67;2.57;;;;;;;16.41;87.84;99504.47;5362593;26;20232;-75
2024/05/06 06:08:13;;;;;;;2.80;2.60;;;;;;;16.30;89.66;99504.66;5346646;26;20582;-75
2024/05/06 06:10:38;;;;;;;2.90;2.70;;;;;;;16.13;90.78;99501.97;5337779;26;20237;-75
2024/05/06 06:13:04;;;;;;;3.23;3.03;;;;;;;16.39;90.40;99501.09;5327441;26;20237;-75
2024/05/06 06:15:32;;;;;;;3.80;2.80;;;;;;;16.01;91.52;99499.38;5318019;26;20619;-75
2024/05/06 06:17:57;;;;;;;3.10;2.90;;;;;;;15.62;94.07;99498.66;5366656;26;20239;-75
2024/05/06 06:20:22;;;;;;;3.40;2.70;;;;;;;15.84;92.91;99498.63;5365656;26;20463;-75
2024/05/06 06:22:48;;;;;;;2.57;2.40;;;;;;;15.93;92.90;99483.13;5369128;26;20608;-76
2024/05/06 06:25:13;;;;;;;2.97;2.77;;;;;;;15.77;92.31;99492.41;5330082;26;20325;-76
2024/05/06 06:27:38;;;;;;;2.87;2.70;;;;;;;15.73;92.79;99491.28;5360791;26;20241;-75
2024/05/06 06:30:04;;;;;;;3.27;3.07;;;;;;;15.66;93.25;99502.63;5369295;26;20354;-76
2024/05/06 06:32:29;;;;;;;3.00;2.67;;;;;;;15.58;93.46;99493.91;5370947;26;20232;-75
2024/05/06 06:34:54;;;;;;;3.53;2.93;;;;;;;15.95;92.66;99502.34;5364887;26;20238;-75
2024/05/06 06:37:20;;;;;;;3.53;2.90;;;;;;;16.11;89.62;99505.03;5367894;26;20280;-74
2024/05/06 06:39:45;;;;;;;2.90;2.70;;;;;;;16.32;88.81;99506.06;5367083;26;20239;-76
2024/05/06 06:42:10;;;;;;;3.30;3.00;;;;;;;15.86;91.30;99490.03;5360286;26;20232;-76
2024/05/06 06:44:36;;;;;;;3.00;2.80;;;;;;;15.98;90.69;99504.63;5362436;26;20284;-75
2024/05/06 06:47:01;;;;;;;2.93;2.73;;;;;;;16.01;91.24;99504.94;5370406;26;20914;-75
2024/05/06 06:49:26;;;;;;;3.47;3.27;;;;;;;15.94;91.38;99506.25;5370305;26;20263;-74
2024/05/06 06:51:52;;;;;;;3.30;3.10;;;;;;;15.68;93.27;99517.13;5347997;26;20244;-75
2024/05/06 06:54:17;;;;;;;3.20;3.00;;;;;;;15.65;93.19;99500.94;5353508;26;20233;-76
2024/05/06 06:56:42;;;;;;;3.50;3.20;;;;;;;15.61;93.86;99516.47;5378167;26;20240;-75
2024/05/06 06:59:08;;;;;;;4.40;3.47;;;;;;;15.64;94.38;99515.13;5329762;26;20689;-75
2024/05/06 07:01:33;;;;;;;3.33;2.60;;;;;;;15.61;93.97;99507.28;5365317;26;20229;-75
2024/05/06 07:03:58;;;;;;;3.27;2.97;;;;;;;15.57;94.48;99503.34;5339544;26;20602;-75
2024/05/06 07:06:23;;;;;;;3.13;2.90;;;;;;;15.77;94.04;99514.69;5367484;26;20270;-76
2024/05/06 07:08:49;;;;;;;3.33;3.13;;;;;;;15.94;93.85;99509.88;5360112;26;20764;-76
2024/05/06 07:11:14;;;;;;;3.37;3.07;;;;;;;15.90;93.71;99510.66;5351267;26;20693;-75
2024/05/06 07:13:39;;;;;;;3.40;2.80;;;;;;;15.71;93.56;99504.63;5329643;26;20267;-76
2024/05/06 07:16:05;;;;;;;3.20;2.90;;;;;;;15.86;93.56;99517.88;5360317;26;20229;-75
2024/05/06 07:18:30;;;;;;;2.97;2.73;;;;;;;15.49;94.83;99516.59;5367626;26;20233;-76
2024/05/06 07:20:55;;;;;;;3.53;2.83;;;;;;;15.70;93.94;99522.44;5370379;26;20244;-74
2024/05/06 07:23:20;;;;;;;6.10;3.50;;;;;;;15.78;94.30;99516.38;5366203;26;20689;-76
2024/05/06 07:25:46;;;;;;;3.27;3.07;;;;;;;15.60;96.17;99509.22;5359744;26;20337;-75
2024/05/06 07:28:11;;;;;;;3.40;3.13;;;;;;;15.31;97.40;99510.50;5363310;26;20276;-76
2024/05/06 07:30:36;;;;;;;3.20;3.00;;;;;;;15.67;95.98;99507.09;5357919;26;20270;-74
2024/05/06 07:33:02;;;;;;;3.00;2.70;;;;;;;15.97;94.83;99522.44;5381290;26;20236;-76
2024/05/06 07:35:27;;;;;;;3.10;2.83;;;;;;;15.82;94.89;99512.81;5360668;26;20599;-74
2024/05/06 07:37:52;;;;;;;3.17;3.07;;;;;;;15.80;95.94;99516.97;5359616;26;20229;-74
2024/05/06 07:40:17;;;;;;;3.53;3.23;;;;;;;16.17;93.74;99509.56;5367329;26;20328;-76
2024/05/06 07:42:43;;;;;;;3.10;2.90;;;;;;;16.16;95.28;99513.44;5352138;26;20603;-76
2024/05/06 07:45:09;;;;;;;3.60;3.00;;;;;;;16.33;93.93;99496.59;5380699;26;20262;-75
2024/05/06 07:47:36;;;;;;;3.23;2.90;;;;;;;16.02;95.10;99512.19;5351398;26;20233;-76
2024/05/06 07:50:01;;;;;;;3.20;3.00;;;;;;;16.25;95.59;99510.16;5368690;26;20462;-75
2024/05/06 07:52:26;;;;;;;2.67;2.47;;;;;;;16.48;94.08;99510.66;5359261;26;20464;-74
2024/05/06 07:54:51;;;;;;;2.90;2.70;;;;;;;16.18;95.77;99511.25;5369460;26;20707;-76
2024/05/06 07:57:19;;;;;;;3.50;2.87;;;;;;;16.36;94.86;99506.34;5376204;26;20231;-76
2024/05/06 07:59:44;;;;;;;3.57;2.90;;;;;;;15.92;95.95;99497.31;5359035;26;20275;-76
2024/05/06 08:02:09;;;;;;;2.93;2.63;;;;;;;16.13;96.34;99510.34;5351288;26;20462;-76
2024/05/06 08:04:34;;;;;;;2.93;2.63;;;;;;;16.01;97.27;99495.75;5359398;26;20232;-76
2024/05/06 08:07:00;;;;;;;2.90;2.70;;;;;;;16.33;96.49;99493.81;5362494;26;20639;-76
2024/05/06 08:09:25;;;;;;;2.80;2.60;;;;;;;16.28;95.97;99499.34;5368509;26;20287;-75
2024/05/06 08:11:51;;;;;;;2.87;2.70;;;;;;;16.56;96.15;99500.94;5369770;26;20271;-76
2024/05/06 08:14:17;;;;;;;2.67;2.47;;;;;;;16.31;96.85;99497.97;5360955;26;20662;-76
2024/05/06 08:16:42;;;;;;;2.97;2.77;;;;;;;16.53;96.55;99504.25;5357494;26;20271;-76
2024/05/06 08:19:07;;;;;;;2.70;2.50;;;;;;;16.60;97.89;99504.06;5379865;26;20232;-76
2024/05/06 08:21:33;;;;;;;3.30;3.00;;;;;;;16.88;95.85;99503.72;5358880;26;20580;-76
2024/05/06 08:23:59;;;;;;;2.93;2.83;;;;;;;16.11;97.04;99515.34;5361598;26;20334;-76
2024/05/06 08:26:24;;;;;;;2.67;2.47;;;;;;;16.24;98.69;99519.63;5368459;26;20471;-75
2024/05/06 08:28:49;;;;;;;3.87;2.90;;;;;;;16.72;97.14;99515.88;5367967;26;20314;-76
2024/05/06 08:31:15;;;;;;;3.10;2.90;;;;;;;16.91;96.69;99517.13;5361050;26;20279;-76
2024/05/06 08:33:40;;;;;;;3.03;2.80;;;;;;;17.38;94.65;99516.28;5358711;26;20342;-75
2024/05/06 08:36:05;;;;;;;2.97;2.73;;;;;;;17.33;96.15;99524.63;5380617;26;20621;-76
2024/05/06 08:38:31;;;;;;;3.77;3.47;;;;;;;17.11;96.11;99502.47;5359124;26;20228;-76
2024/05/06 08:40:57;;;;;;;3.30;3.00;;;;;;;17.53;94.92;99514.38;5363136;26;20229;-75
2024/05/06 08:43:22;;;;;;;3.37;3.07;;;;;;;17.28;96.15;99511.47;5368246;26;20241;-75
2024/05/06 08:45:49;;;;;;;3.37;3.17;;;;;;;16.87;96.73;99507.63;5353024;26;20229;-76
2024/05/06 08:48:19;;;;;;;4.40;4.10;;;;;;;17.62;96.47;99513.84;5351683;26;20229;-76
2024/05/06 08:50:49;;;;;;;3.40;3.20;;;;;;;17.61;96.08;99509.38;5369308;26;20572;-76
2024/05/06 08:53:15;;;;;;;4.20;3.43;;;;;;;17.73;96.28;99513.63;5347548;26;20456;-77
2024/05/06 08:55:40;;;;;;;3.67;3.47;;;;;;;17.70;95.14;99511.41;5375225;26;20466;-76
2024/05/06 08:58:09;;;;;;;4.23;3.93;;;;;;;17.71;95.59;99503.88;5361798;26;20621;-75
2024/05/06 09:00:38;;;;;;;4.27;4.00;;;;;;;17.78;95.53;99501.63;5368924;26;20236;-76
2024/05/06 09:03:04;;;;;;;3.17;3.00;;;;;;;17.80;95.51;99499.41;5368465;26;20543;-76
2024/05/06 09:05:37;;;;;;;5.40;3.23;;;;;;;17.91;94.77;99503.91;5329477;26;20994;-76
2024/05/06 09:08:05;;;;;;;3.20;3.00;;;;;;;18.07;95.43;99494.44;5358730;26;20328;-76
2024/05/06 09:10:31;;;;;;;3.30;2.77;;;;;;;17.83;95.86;99493.28;5357680;26;20455;-75
2024/05/06 09:12:56;;;;;;;3.70;3.40;;;;;;;18.00;94.85;99496.66;5377906;26;20518;-75
2024/05/06 09:15:25;;;;;;;3.43;3.13;;;;;;;17.95;95.15;99499.44;5359284;26;20237;-77
2024/05/06 09:17:50;;;;;;;3.73;3.27;;;;;;;18.06;93.58;99509.53;5368682;26;20586;-76
2024/05/06 09:20:16;;;;;;;4.03;3.40;;;;;;;18.11;94.73;99492.75;5337984;26;21030;-76
2024/05/06 09:22:42;;;;;;;7.67;4.47;;;;;;;18.45;93.50;99509.84;5360637;26;20236;-75
2024/05/06 09:25:16;;;;;;;9.23;4.30;;;;;;;18.45;93.67;99509.84;5358352;26;20470;-76
2024/05/06 09:27:41;;;;;;;6.67;4.13;;;;;;;17.89;94.74;99503.34;5354545;26;20228;-76
2024/05/06 09:30:08;;;;;;;8.13;4.00;;;;;;;18.18;93.40;99500.88;5368235;26;20518;-75
2024/05/06 09:32:34;;;;;;;4.13;3.33;;;;;;;18.17;93.92;99504.81;5345757;26;20812;-75
2024/05/06 09:35:04;;;;;;;3.40;3.10;;;;;;;18.29;94.65;99513.75;5367824;26;20836;-75
2024/05/06 09:37:32;;;;;;;4.30;3.37;;;;;;;18.32;94.88;99502.03;5367857;26;20518;-76
2024/05/06 09:40:02;;;;;;;3.43;3.20;;;;;;;18.94;93.17;99503.69;5339720;26;20522;-76
2024/05/06 09:42:37;;;;;;;4.10;2.90;;;;;;;18.25;93.16;99505.06;5371306;26;20801;-76
2024/05/06 09:45:04;;;;;;;3.57;2.77;;;;;;;18.50;92.24;99498.63;5350085;26;20454;-75
2024/05/06 09:47:30;;;;;;;3.37;3.17;;;;;;;18.12;91.93;99511.22;5349102;26;20466;-76
2024/05/06 09:49:57;;;;;;;3.00;2.80;;;;;;;18.59;92.37;99498.97;5371472;26;20450;-75
2024/05/06 09:52:23;;;;;;;3.10;2.43;;;;;;;19.13;92.25;99515.94;5364268;26;20504;-76
2024/05/06 09:54:50;;;;;;;5.13;3.10;;;;;;;18.79;87.68;99517.69;5360621;26;20465;-75
2024/05/06 09:57:16;;;;;;;3.07;2.93;;;;;;;18.64;90.50;99512.13;5365222;26;20572;-75
2024/05/06 09:59:43;;;;;;;3.30;3.03;;;;;;;19.15;91.59;99504.44;5371045;26;20467;-75
2024/05/06 10:02:21;;;;;;;2.90;2.77;;;;;;;18.28;90.89;99515.72;5319399;26;20479;-75
2024/05/06 10:04:47;;;;;;;2.83;2.73;;;;;;;18.64;91.00;99507.34;5348679;26;20503;-74
2024/05/06 10:07:16;;;;;;;2.87;2.77;;;;;;;19.08;92.51;99512.31;5323020;26;20477;-75
2024/05/06 10:09:45;;;;;;;2.97;2.60;;;;;;;19.35;90.77;99504.41;5334643;26;20548;-75
2024/05/06 10:12:10;;;;;;;4.13;3.00;;;;;;;18.88;91.60;99499.22;5340621;26;20471;-73
2024/05/06 10:14:36;;;;;;;2.60;2.40;;;;;;;18.70;91.62;99513.78;5369968;26;20494;-75
2024/05/06 10:17:09;;;;;;;3.00;2.70;;;;;;;18.45;93.13;99509.00;5360386;26;20303;-74
2024/05/06 10:19:35;;;;;;;2.67;2.47;;;;;;;18.19;93.64;99494.16;5345098;26;20275;-75
2024/05/06 10:22:00;;;;;;;2.40;2.30;;;;;;;18.42;91.19;99503.97;5365629;26;20455;-75
2024/05/06 10:24:26;;;;;;;2.37;2.17;;;;;;;18.51;92.66;99505.91;5370614;26;20236;-73
2024/05/06 10:26:56;;;;;;;2.43;2.23;;;;;;;18.94;91.59;99503.69;5338098;26;20296;-75
2024/05/06 10:29:22;;;;;;;2.27;2.07;;;;;;;19.30;92.66;99510.00;5360749;26;20232;-75
2024/05/06 10:31:52;;;;;;;2.13;2.03;;;;;;;19.40;91.29;99509.97;5360535;26;20516;-75
2024/05/06 10:34:18;;;;;;;2.83;2.40;;;;;;;19.30;88.44;99504.41;5342497;26;20275;-75
2024/05/06 10:36:45;;;;;;;6.23;2.40;;;;;;;19.38;87.54;99514.19;5351357;26;20470;-74
2024/05/06 10:39:13;;;;;;;2.30;2.10;;;;;;;19.33;87.87;99515.03;5365414;26;20455;-75
2024/05/06 10:41:41;;;;;;;6.43;2.40;;;;;;;18.79;90.62;99506.50;5339797;26;20479;-75
2024/05/06 10:44:07;;;;;;;4.00;2.53;;;;;;;19.14;91.56;99514.81;5370638;26;20579;-75
2024/05/06 10:46:32;;;;;;;3.60;1.70;;;;;;;19.18;88.70;99515.94;5329675;26;20477;-75
2024/05/06 10:49:01;;;;;;;1.60;1.50;;;;;;;19.26;88.84;99520.09;5329623;26;20701;-74
2024/05/06 10:51:26;;;;;;;1.77;1.77;;;;;;;19.13;88.11;99512.28;5374149;26;20270;-75
2024/05/06 10:53:52;;;;;;;2.40;1.90;;;;;;;19.31;87.50;99518.13;5329528;26;20466;-75
2024/05/06 10:56:17;;;;;;;2.03;1.83;;;;;;;19.23;86.90;99521.53;5364580;26;20237;-75
2024/05/06 10:58:43;;;;;;;2.17;2.07;;;;;;;19.16;88.42;99518.16;5357385;26;20227;-75
2024/05/06 11:01:08;;;;;;;2.13;2.03;;;;;;;19.19;89.98;99523.22;5331832;26;20580;-75
2024/05/06 11:03:34;;;;;;;2.00;1.90;;;;;;;19.03;89.15;99515.97;5339455;26;20241;-73
2024/05/06 11:06:00;;;;;;;1.90;1.80;;;;;;;18.16;92.65;99520.75;5370218;26;20236;-76
2024/05/06 11:08:25;;;;;;;2.17;1.90;;;;;;;18.13;93.89;99506.47;5353298;26;20515;-76
2024/05/06 11:10:51;;;;;;;2.13;2.03;;;;;;;18.15;94.34;99524.66;5350892;26;20660;-76
2024/05/06 11:13:16;;;;;;;2.20;2.00;;;;;;;18.03;97.51;99514.81;5382663;26;20231;-76
2024/05/06 11:15:42;;;;;;;2.03;1.87;;;;;;;17.98;100.00;99517.63;5360828;26;20271;-76
2024/05/06 11:18:08;;;;;;;2.70;2.50;;;;;;;18.14;98.00;99519.31;5363660;26;20669;-76
2024/05/06 11:20:35;;;;;;;2.97;2.70;;;;;;;18.38;97.45;99522.41;5370263;26;20283;-75
2024/05/06 11:23:02;;;;;;;2.17;1.97;;;;;;;18.69;96.64;99512.09;5369361;26;20232;-76
2024/05/06 11:25:27;;;;;;;2.00;1.90;;;;;;;18.78;96.32;99527.22;5352181;26;20587;-75
2024/05/06 11:27:54;;;;;;;1.90;1.80;;;;;;;18.90;95.53;99522.16;5350356;26;20471;-76
2024/05/06 11:30:20;;;;;;;1.73;1.60;;;;;;;18.69;94.94;99507.34;5375707;26;20229;-76
2024/05/06 11:32:45;;;;;;;2.13;2.03;;;;;;;19.14;93.32;99523.22;5367777;26;20458;-75